createdAt,value
2024-04-18T00:00:35.509Z,7.97
2024-04-18T00:03:05.342Z,8.10
2024-04-18T00:05:32.576Z,7.97
2024-04-18T00:08:02.429Z,7.82
2024-04-18T00:10:32.238Z,7.65
2024-04-18T00:13:02.004Z,7.70
2024-04-18T00:15:29.220Z,7.82
2024-04-18T00:17:59.507Z,8.23
2024-04-18T00:20:26.735Z,7.50
2024-04-18T00:22:57.118Z,7.90
2024-04-18T00:25:34.791Z,8.32
2024-04-18T00:28:04.857Z,7.90
2024-04-18T00:30:41.256Z,7.68
2024-04-18T00:33:12.261Z,7.50
2024-04-18T00:35:39.649Z,8.52
2024-04-18T00:38:15.007Z,8.15
2024-04-18T00:40:45.201Z,8.65
2024-04-18T00:43:23.076Z,9.32
2024-04-18T00:45:54.095Z,8.40
2024-04-18T00:48:25.115Z,8.25
2024-04-18T00:50:56.640Z,8.40
2024-04-18T00:53:28.136Z,9.25
2024-04-18T00:55:58.802Z,8.32
2024-04-18T00:58:47.876Z,7.93
2024-04-18T01:01:22.456Z,8.10
2024-04-18T01:03:59.441Z,7.90
2024-04-18T01:06:47.828Z,8.05
2024-04-18T01:09:15.640Z,7.70
2024-04-18T01:12:08.605Z,7.88
2024-04-18T01:14:35.809Z,8.02
2024-04-18T01:17:06.893Z,8.48
2024-04-18T01:19:34.327Z,8.82
2024-04-18T01:22:06.150Z,8.52
2024-04-18T01:24:34.082Z,8.38
2024-04-18T01:27:07.902Z,8.93
2024-04-18T01:29:44.773Z,8.38
2024-04-18T01:32:36.390Z,8.95
2024-04-18T01:35:05.654Z,9.65
2024-04-18T01:37:51.033Z,9.30
2024-04-18T01:40:18.834Z,9.57
2024-04-18T01:43:11.948Z,9.07
2024-04-18T01:45:58.060Z,9.07
2024-04-18T01:48:27.850Z,9.43
2024-04-18T01:51:13.740Z,8.82
2024-04-18T01:53:43.542Z,9.57
2024-04-18T01:56:19.839Z,8.98
2024-04-18T01:58:52.271Z,9.63
2024-04-18T02:01:24.453Z,9.07
2024-04-18T02:03:54.620Z,9.75
2024-04-18T02:06:21.684Z,9.73
2024-04-18T02:08:51.610Z,9.88
2024-04-18T02:11:41.605Z,10.13
2024-04-18T02:14:17.343Z,10.52
2024-04-18T02:16:44.548Z,10.70
2024-04-18T02:19:26.730Z,11.10
2024-04-18T02:22:20.015Z,10.07
2024-04-18T02:25:12.481Z,10.57
2024-04-18T02:27:40.478Z,11.10
2024-04-18T02:30:28.580Z,12.23
2024-04-18T02:33:13.741Z,12.48
2024-04-18T02:35:47.077Z,11.93
2024-04-18T02:38:35.690Z,12.50
2024-04-18T02:41:04.394Z,11.90
2024-04-18T02:43:56.139Z,13.70
2024-04-18T02:46:25.862Z,12.32
2024-04-18T02:49:14.414Z,11.70
2024-04-18T02:51:56.908Z,11.73
2024-04-18T02:54:45.731Z,11.80
2024-04-18T02:57:12.862Z,12.43
2024-04-18T02:59:42.835Z,13.35
2024-04-18T03:02:28.022Z,12.50
2024-04-18T03:05:14.077Z,12.18
2024-04-18T03:07:43.713Z,13.65
2024-04-18T03:10:10.839Z,13.60
2024-04-18T03:13:00.506Z,13.23
2024-04-18T03:15:47.156Z,12.40
2024-04-18T03:18:19.692Z,12.45
2024-04-18T03:20:55.537Z,12.95
2024-04-18T03:26:32.979Z,11.68
2024-04-18T03:29:00.171Z,13.30
2024-04-18T03:31:29.858Z,13.40
2024-04-18T03:33:59.614Z,13.10
2024-04-18T03:36:29.297Z,14.55
2024-04-18T03:39:02.206Z,14.70
2024-04-18T03:41:31.951Z,13.80
2024-04-18T03:44:17.782Z,13.82
2024-04-18T03:46:47.484Z,13.73
2024-04-18T03:49:39.075Z,12.88
2024-04-18T03:52:06.690Z,13.45
2024-04-18T03:54:51.448Z,13.75
2024-04-18T03:57:40.478Z,13.93
2024-04-18T04:00:11.360Z,14.13
2024-04-18T04:02:40.442Z,13.07
2024-04-18T04:05:12.976Z,13.75
2024-04-18T04:07:40.166Z,15.45
2024-04-18T04:10:10.055Z,14.57
2024-04-18T04:12:41.285Z,14.70
2024-04-18T04:15:08.820Z,14.35
2024-04-18T04:17:40.697Z,13.65
2024-04-18T04:20:10.575Z,15.10
2024-04-18T04:22:40.348Z,15.07
2024-04-18T04:25:25.651Z,14.75
2024-04-18T04:27:55.404Z,14.32
2024-04-18T04:30:22.511Z,14.40
2024-04-18T04:32:52.215Z,15.35
2024-04-18T04:35:37.173Z,15.05
2024-04-18T04:38:07.136Z,16.00
2024-04-18T04:40:34.560Z,14.77
2024-04-18T04:43:04.399Z,16.52
2024-04-18T04:45:31.641Z,17.13
2024-04-18T04:48:09.005Z,14.32
2024-04-18T04:51:00.879Z,14.90
2024-04-18T04:53:36.695Z,15.98
2024-04-18T04:56:04.118Z,14.75
2024-04-18T04:58:33.823Z,14.18
2024-04-18T05:01:01.057Z,14.93
2024-04-18T05:03:39.722Z,14.98
2024-04-18T05:06:27.835Z,14.73
2024-04-18T05:09:19.544Z,14.38
2024-04-18T05:11:46.836Z,15.85
2024-04-18T05:14:35.392Z,14.45
2024-04-18T05:17:22.394Z,14.88
2024-04-18T05:20:12.745Z,16.00
2024-04-18T05:22:42.512Z,15.43
2024-04-18T05:25:14.244Z,14.45
2024-04-18T05:27:46.228Z,13.95
2024-04-18T05:30:51.943Z,15.05
2024-04-18T05:33:21.949Z,14.38
2024-04-18T05:35:51.786Z,14.00
2024-04-18T05:38:24.289Z,14.90
2024-04-18T05:40:54.040Z,15.50
2024-04-18T05:43:43.731Z,15.10
2024-04-18T05:46:13.509Z,16.27
2024-04-18T05:48:43.269Z,13.65
2024-04-18T05:51:13.009Z,14.13
2024-04-18T05:54:05.775Z,13.75
2024-04-18T05:56:35.439Z,13.05
2024-04-18T05:59:05.118Z,12.45
2024-04-18T06:01:35.771Z,13.20
2024-04-18T06:04:05.645Z,11.00
2024-04-18T06:06:35.495Z,11.63
2024-04-18T06:09:23.754Z,11.20
2024-04-18T06:11:53.473Z,13.35
2024-04-18T06:14:23.154Z,13.05
2024-04-18T06:16:53.474Z,12.82
2024-04-18T06:19:43.193Z,12.70
2024-04-18T06:22:30.716Z,10.23
2024-04-18T06:25:21.637Z,11.73
2024-04-18T06:27:51.499Z,11.00
2024-04-18T06:30:21.695Z,10.23
2024-04-18T06:32:51.501Z,10.40
2024-04-18T06:35:21.299Z,10.32
2024-04-18T06:37:51.725Z,9.30
2024-04-18T06:40:24.965Z,9.52
2024-04-18T06:42:55.124Z,9.25
2024-04-18T06:45:26.368Z,8.60
2024-04-18T06:47:56.462Z,8.02
2024-04-18T06:50:27.115Z,9.30
2024-04-18T06:52:57.164Z,8.95
2024-04-18T06:55:29.571Z,9.02
2024-04-18T06:57:59.832Z,9.65
2024-04-18T07:00:30.002Z,12.88
2024-04-18T07:02:59.793Z,11.10
2024-04-18T07:05:48.655Z,10.77
2024-04-18T07:08:25.434Z,7.97
2024-04-18T07:11:00.056Z,8.75
2024-04-18T07:13:32.816Z,9.00
2024-04-18T07:16:06.948Z,8.65
2024-04-18T07:18:55.651Z,8.35
2024-04-18T07:21:25.908Z,8.68
2024-04-18T07:24:15.805Z,9.10
2024-04-18T07:26:48.393Z,9.30
2024-04-18T07:29:15.611Z,9.65
2024-04-18T07:31:45.494Z,9.40
2024-04-18T07:34:15.462Z,8.32
2024-04-18T07:36:47.242Z,9.73
2024-04-18T07:39:17.045Z,9.10
2024-04-18T07:41:50.380Z,8.82
2024-04-18T07:44:23.016Z,10.45
2024-04-18T07:46:54.712Z,8.80
2024-04-18T07:49:24.442Z,8.50
2024-04-18T07:51:56.843Z,8.95
2024-04-18T07:54:27.140Z,7.57
2024-04-18T07:56:57.312Z,6.65
2024-04-18T07:59:27.927Z,6.57
2024-04-18T08:01:59.904Z,6.75
2024-04-18T08:04:50.611Z,7.30
2024-04-18T08:07:23.186Z,8.00
2024-04-18T08:09:57.556Z,7.78
2024-04-18T08:12:35.676Z,7.50
2024-04-18T08:15:14.246Z,7.72
2024-04-18T08:17:47.218Z,7.38
2024-04-18T08:20:16.931Z,7.13
2024-04-18T08:22:47.613Z,7.38
2024-04-18T08:25:17.732Z,7.57
2024-04-18T08:27:50.373Z,6.55
2024-04-18T08:30:20.724Z,6.50
2024-04-18T08:32:50.619Z,6.28
2024-04-18T08:35:20.499Z,6.60
2024-04-18T08:37:51.644Z,5.68
2024-04-18T08:40:22.242Z,5.00
2024-04-18T08:42:55.309Z,4.97
2024-04-18T08:45:29.550Z,4.40
2024-04-18T08:48:02.155Z,4.68
2024-04-18T08:50:33.123Z,5.05
2024-04-18T08:53:04.149Z,4.78
2024-04-18T08:55:36.455Z,4.88
2024-04-18T08:58:16.452Z,4.70
2024-04-18T09:00:49.191Z,4.13
2024-04-18T09:03:22.180Z,5.10
2024-04-18T09:05:51.921Z,4.75
2024-04-18T09:08:21.672Z,4.82
2024-04-18T09:10:52.196Z,5.00
2024-04-18T09:13:26.238Z,5.30
2024-04-18T09:15:57.054Z,5.35
2024-04-18T09:18:28.160Z,4.88
2024-04-18T09:20:58.667Z,4.28
2024-04-18T09:23:28.499Z,4.07
2024-04-18T09:25:58.246Z,3.55
2024-04-18T09:28:30.794Z,4.72
2024-04-18T09:31:04.932Z,3.50
2024-04-18T09:33:36.856Z,3.90
2024-04-18T09:36:08.205Z,3.60
2024-04-18T09:38:44.036Z,2.70
2024-04-18T09:41:18.269Z,3.00
2024-04-18T09:44:04.191Z,2.80
2024-04-18T09:46:35.598Z,3.30
2024-04-18T09:49:06.522Z,3.85
2024-04-18T09:51:36.517Z,3.78
2024-04-18T09:54:09.121Z,3.78
2024-04-18T09:56:41.592Z,3.88
2024-04-18T09:59:16.191Z,3.83
2024-04-18T10:01:46.565Z,4.18
2024-04-18T10:04:16.956Z,3.70
2024-04-18T10:06:50.285Z,3.97
2024-04-18T10:09:22.264Z,3.33
2024-04-18T10:11:52.390Z,4.20
2024-04-18T10:14:25.251Z,4.10
2024-04-18T10:16:55.269Z,3.70
2024-04-18T10:19:23.655Z,3.67
2024-04-18T10:22:11.405Z,3.85
2024-04-18T10:27:25.084Z,3.13
2024-04-18T10:30:03.153Z,2.90
2024-04-18T10:32:34.892Z,2.97
2024-04-18T10:35:04.621Z,2.70
2024-04-18T10:37:34.352Z,2.72
2024-04-18T10:40:07.896Z,3.03
2024-04-18T10:42:41.401Z,2.72
2024-04-18T10:45:14.163Z,2.72
2024-04-18T10:47:41.651Z,2.35
2024-04-18T10:50:12.480Z,2.20
2024-04-18T10:52:43.588Z,2.20
2024-04-18T10:55:13.432Z,2.42
2024-04-18T10:57:40.920Z,2.03
2024-04-18T11:00:19.071Z,1.75
2024-04-18T11:02:48.986Z,1.40
2024-04-18T11:05:18.936Z,1.23
2024-04-18T11:07:54.966Z,1.48
2024-04-18T11:10:27.146Z,1.50
2024-04-18T11:12:58.241Z,2.00
2024-04-18T11:15:31.933Z,1.40
2024-04-18T11:18:06.048Z,1.30
2024-04-18T11:20:36.116Z,1.20
2024-04-18T11:23:13.615Z,1.70
2024-04-18T11:25:45.632Z,1.50
2024-04-18T11:28:16.428Z,1.67
2024-04-18T11:30:49.346Z,1.65
2024-04-18T11:33:23.184Z,1.40
2024-04-18T11:35:53.645Z,1.40
2024-04-18T11:38:23.770Z,1.50
2024-04-18T11:40:53.519Z,1.40
2024-04-18T11:43:23.264Z,1.38
2024-04-18T11:45:55.681Z,1.58
2024-04-18T11:48:25.715Z,2.75
2024-04-18T11:50:55.646Z,1.48
2024-04-18T11:53:25.381Z,1.25
2024-04-18T11:55:57.606Z,1.58
2024-04-18T11:58:30.872Z,1.70
2024-04-18T12:01:04.083Z,1.90
2024-04-18T12:03:43.580Z,1.83
2024-04-18T12:06:32.470Z,1.90
2024-04-18T12:09:02.425Z,2.10
2024-04-18T12:11:33.448Z,2.10
2024-04-18T12:14:15.541Z,2.20
2024-04-18T12:17:00.419Z,2.15
2024-04-18T12:19:45.885Z,2.10
2024-04-18T12:22:34.140Z,1.83
2024-04-18T12:25:16.734Z,1.55
2024-04-18T12:27:46.555Z,1.40
2024-04-18T12:30:35.568Z,1.40
2024-04-18T12:33:26.437Z,1.45
2024-04-18T12:35:56.378Z,1.67
2024-04-18T12:38:23.497Z,1.70
2024-04-18T12:41:03.774Z,2.08
2024-04-18T12:43:35.255Z,1.73
2024-04-18T12:46:11.572Z,1.83
2024-04-18T12:48:56.936Z,1.80
2024-04-18T12:51:27.190Z,1.40
2024-04-18T12:53:57.672Z,1.70
2024-04-18T12:56:49.428Z,1.70
2024-04-18T12:59:26.019Z,1.20
2024-04-18T13:01:56.001Z,1.50
2024-04-18T13:04:28.520Z,1.67
2024-04-18T13:06:58.590Z,1.50
2024-04-18T13:09:31.355Z,1.52
2024-04-18T13:12:04.830Z,1.30
2024-04-18T13:14:53.993Z,1.08
2024-04-18T13:17:24.383Z,1.30
2024-04-18T13:19:56.834Z,1.17
2024-04-18T13:22:26.523Z,1.17
2024-04-18T13:24:56.430Z,0.95
2024-04-18T13:27:32.616Z,1.08
2024-04-18T13:30:04.960Z,0.88
2024-04-18T13:32:35.174Z,1.50
2024-04-18T13:35:08.489Z,0.75
2024-04-18T13:37:38.499Z,0.93
2024-04-18T13:40:21.319Z,0.95
2024-04-18T13:43:02.509Z,0.82
2024-04-18T13:45:33.853Z,1.00
2024-04-18T13:48:04.745Z,1.17
2024-04-18T13:50:52.887Z,0.93
2024-04-18T13:53:22.710Z,0.93
2024-04-18T13:55:52.677Z,0.90
2024-04-18T13:58:24.140Z,1.02
2024-04-18T14:01:02.872Z,0.75
2024-04-18T14:03:33.198Z,0.70
2024-04-18T14:06:10.468Z,0.77
2024-04-18T14:08:41.217Z,2.13
2024-04-18T14:11:31.055Z,0.90
2024-04-18T14:14:11.429Z,0.90
2024-04-18T14:17:17.428Z,0.90
2024-04-18T14:20:05.380Z,0.90
2024-04-18T14:22:37.883Z,1.00
2024-04-18T14:25:08.264Z,0.93
2024-04-18T14:27:38.218Z,1.00
2024-04-18T14:30:28.369Z,0.93
2024-04-18T14:33:12.836Z,0.80
2024-04-18T14:35:42.904Z,0.70
2024-04-18T14:38:15.369Z,0.88
2024-04-18T14:40:53.271Z,1.05
2024-04-18T14:43:27.878Z,0.80
2024-04-18T14:45:57.907Z,0.90
2024-04-18T14:48:47.690Z,1.00
2024-04-18T14:51:26.372Z,1.02
2024-04-18T14:53:58.765Z,0.90
2024-04-18T14:56:41.708Z,0.85
2024-04-18T14:59:11.404Z,1.17
2024-04-18T15:01:41.114Z,1.30
2024-04-18T15:04:10.877Z,1.35
2024-04-18T15:07:00.825Z,1.48
2024-04-18T15:09:44.560Z,1.20
2024-04-18T15:12:14.678Z,0.88
2024-04-18T15:14:45.067Z,1.10
2024-04-18T15:17:16.441Z,1.10
2024-04-18T15:19:46.711Z,1.00
2024-04-18T15:22:36.049Z,1.20
2024-04-18T15:25:26.921Z,1.10
2024-04-18T15:27:56.897Z,1.00
2024-04-18T15:30:26.985Z,1.20
2024-04-18T15:32:56.922Z,1.30
2024-04-18T15:35:26.662Z,0.90
2024-04-18T15:38:15.433Z,1.10
2024-04-18T15:41:07.725Z,1.02
2024-04-18T15:43:37.778Z,1.00
2024-04-18T15:46:07.847Z,1.30
2024-04-18T15:48:37.852Z,1.10
2024-04-18T15:51:09.540Z,1.15
2024-04-18T15:53:59.468Z,1.17
2024-04-18T15:56:31.755Z,1.58
2024-04-18T15:59:02.026Z,1.40
2024-04-18T16:01:50.758Z,1.30
2024-04-18T16:04:39.487Z,1.02
2024-04-18T16:07:09.312Z,1.30
2024-04-18T16:09:54.340Z,1.48
2024-04-18T16:12:26.934Z,1.45
2024-04-18T16:15:03.476Z,1.45
2024-04-18T16:17:34.354Z,1.50
2024-04-18T16:20:13.920Z,1.23
2024-04-18T16:22:43.803Z,2.20
2024-04-18T16:25:30.411Z,1.50
2024-04-18T16:28:04.067Z,1.27
2024-04-18T16:30:33.965Z,1.20
2024-04-18T16:33:03.942Z,1.10
2024-04-18T16:35:33.727Z,1.33
2024-04-18T16:38:15.441Z,0.98
2024-04-18T16:40:54.306Z,1.50
2024-04-18T16:43:38.265Z,0.90
2024-04-18T16:46:09.196Z,0.82
2024-04-18T16:48:40.088Z,0.93
2024-04-18T16:51:10.070Z,2.00
2024-04-18T16:53:59.485Z,1.55
2024-04-18T16:56:49.192Z,1.30
2024-04-18T16:59:21.671Z,1.10
2024-04-18T17:01:51.576Z,1.50
2024-04-18T17:04:21.573Z,1.00
2024-04-18T17:07:09.572Z,1.20
2024-04-18T17:09:58.973Z,1.08
2024-04-18T17:12:28.809Z,1.25
2024-04-18T17:15:24.021Z,1.33
2024-04-18T17:17:54.054Z,1.42
2024-04-18T17:20:29.909Z,1.83
2024-04-18T17:22:59.837Z,1.58
2024-04-18T17:25:29.846Z,1.80
2024-04-18T17:27:59.782Z,1.90
2024-04-18T17:30:32.158Z,1.45
2024-04-18T17:33:01.934Z,1.70
2024-04-18T17:35:31.650Z,2.40
2024-04-18T17:38:15.082Z,2.10
2024-04-18T17:41:02.549Z,1.83
2024-04-18T17:43:33.864Z,1.80
2024-04-18T17:46:06.568Z,1.52
2024-04-18T17:48:47.722Z,1.77
2024-04-18T17:51:17.798Z,1.50
2024-04-18T17:53:47.605Z,1.77
2024-04-18T17:56:18.069Z,2.20
2024-04-18T17:58:47.818Z,2.40
2024-04-18T18:01:20.283Z,1.83
2024-04-18T18:04:10.353Z,1.80
2024-04-18T18:06:40.193Z,1.85
2024-04-18T18:09:09.978Z,1.60
2024-04-18T18:11:39.869Z,4.53
2024-04-18T18:14:09.716Z,2.30
2024-04-18T18:17:01.828Z,4.82
2024-04-18T18:19:31.808Z,3.90
2024-04-18T18:22:00.617Z,2.20
2024-04-18T18:24:30.465Z,2.25
2024-04-18T18:27:00.225Z,2.00
2024-04-18T18:29:27.381Z,2.00
2024-04-18T18:32:14.806Z,1.70
2024-04-18T18:34:42.884Z,1.85
2024-04-18T18:37:12.810Z,1.92
2024-04-18T18:39:43.071Z,2.13
2024-04-18T18:42:10.406Z,2.35
2024-04-18T18:44:40.283Z,2.05
2024-04-18T18:47:10.036Z,2.53
2024-04-18T18:49:51.768Z,2.20
2024-04-18T18:52:19.650Z,2.53
2024-04-18T18:54:49.947Z,2.60
2024-04-18T18:57:17.111Z,2.75
2024-04-18T18:59:47.063Z,2.55
2024-04-18T19:02:16.882Z,2.55
2024-04-18T19:05:05.029Z,2.50
2024-04-18T19:07:32.210Z,2.30
2024-04-18T19:10:02.274Z,2.63
2024-04-18T19:12:29.465Z,2.67
2024-04-18T19:15:01.450Z,2.85
2024-04-18T19:17:32.063Z,3.00
2024-04-18T19:20:02.012Z,3.40
2024-04-18T19:22:29.154Z,3.95
2024-04-18T19:24:58.837Z,4.50
2024-04-18T19:27:26.056Z,4.60
2024-04-18T19:29:57.234Z,3.50
2024-04-18T19:32:24.967Z,3.10
2024-04-18T19:34:57.371Z,2.58
2024-04-18T19:37:24.466Z,2.80
2024-04-18T19:39:54.708Z,2.78
2024-04-18T19:42:21.797Z,3.00
2024-04-18T19:44:55.792Z,2.38
2024-04-18T19:47:22.882Z,2.30
2024-04-18T19:49:52.546Z,2.38
2024-04-18T19:52:22.532Z,2.25
2024-04-18T19:54:52.579Z,2.45
2024-04-18T19:57:22.315Z,2.35
2024-04-18T19:59:49.463Z,2.40
2024-04-18T20:02:19.336Z,2.70
2024-04-18T20:04:46.476Z,2.65
2024-04-18T20:07:16.412Z,2.75
2024-04-18T20:09:46.300Z,2.60
2024-04-18T20:12:16.070Z,3.28
2024-04-18T20:15:03.238Z,2.83
2024-04-18T20:17:32.991Z,3.20
2024-04-18T20:20:00.124Z,2.60
2024-04-18T20:22:29.813Z,3.05
2024-04-18T20:24:59.605Z,3.17
2024-04-18T20:27:42.323Z,3.33
2024-04-18T20:30:09.940Z,3.03
2024-04-18T20:32:59.696Z,2.90
2024-04-18T20:35:26.874Z,3.10
2024-04-18T20:37:56.991Z,2.95
2024-04-18T20:40:26.869Z,3.15
2024-04-18T20:42:56.612Z,3.17
2024-04-18T20:45:23.818Z,3.08
2024-04-18T20:47:55.224Z,3.15
2024-04-18T20:50:22.359Z,3.20
2024-04-18T20:52:52.128Z,3.05
2024-04-18T20:55:19.209Z,3.28
2024-04-18T20:57:51.646Z,3.45
2024-04-18T21:00:28.146Z,3.58
2024-04-18T21:02:58.002Z,3.33
2024-04-18T21:05:25.063Z,3.60
2024-04-18T21:07:54.953Z,3.80
2024-04-18T21:10:22.152Z,3.20
2024-04-18T21:12:54.498Z,3.33
2024-04-18T21:15:21.716Z,3.22
2024-04-18T21:17:51.606Z,3.38
2024-04-18T21:20:18.707Z,3.50
2024-04-18T21:22:49.487Z,3.17
2024-04-18T21:25:16.931Z,3.25
2024-04-18T21:27:46.683Z,3.65
2024-04-18T21:30:16.822Z,3.40
2024-04-18T21:32:46.655Z,3.90
2024-04-18T21:35:31.199Z,3.63
2024-04-18T21:38:01.125Z,3.60
2024-04-18T21:40:28.964Z,4.00
2024-04-18T21:43:03.837Z,3.97
2024-04-18T21:45:34.281Z,3.67
2024-04-18T21:48:04.230Z,4.32
2024-04-18T21:50:31.628Z,3.90
2024-04-18T21:53:01.852Z,4.13
2024-04-18T21:55:29.094Z,3.80
2024-04-18T21:57:58.838Z,4.07
2024-04-18T22:00:29.288Z,3.90
2024-04-18T22:03:02.053Z,4.20
2024-04-18T22:05:31.907Z,3.80
2024-04-18T22:08:02.020Z,3.97
2024-04-18T22:10:32.012Z,4.65
2024-04-18T22:12:59.207Z,5.00
2024-04-18T22:15:29.080Z,4.30
2024-04-18T22:17:56.435Z,4.05
2024-04-18T22:20:28.856Z,4.20
2024-04-18T22:23:14.405Z,3.90
2024-04-18T22:25:45.411Z,3.47
2024-04-18T22:28:12.601Z,4.20
2024-04-18T22:30:42.441Z,4.40
2024-04-18T22:33:09.613Z,3.63
2024-04-18T22:35:42.337Z,3.63
2024-04-18T22:38:09.492Z,3.80
2024-04-18T22:40:39.632Z,3.88
2024-04-18T22:43:06.782Z,3.92
2024-04-18T22:45:36.509Z,3.65
2024-04-18T22:48:04.184Z,3.85
2024-04-18T22:50:33.973Z,3.53
2024-04-18T22:53:04.020Z,3.90
2024-04-18T22:55:33.807Z,3.60
2024-04-18T22:58:05.137Z,3.20
2024-04-18T23:00:38.984Z,3.58
2024-04-18T23:03:06.990Z,3.58
2024-04-18T23:05:39.903Z,3.30
2024-04-18T23:08:09.810Z,3.70
2024-04-18T23:10:39.563Z,3.30
2024-04-18T23:13:06.966Z,3.40
2024-04-18T23:15:54.682Z,3.35
2024-04-18T23:18:21.982Z,3.20
2024-04-18T23:20:55.462Z,3.50
2024-04-18T23:23:35.761Z,3.72
2024-04-18T23:26:05.634Z,3.42
2024-04-18T23:28:32.815Z,3.42
2024-04-18T23:31:02.646Z,3.47
2024-04-18T23:33:32.650Z,3.38
2024-04-18T23:36:00.988Z,3.53
2024-04-18T23:38:30.745Z,3.75
2024-04-18T23:41:00.580Z,3.65
2024-04-18T23:43:30.422Z,3.70
2024-04-18T23:45:58.032Z,4.00
2024-04-18T23:48:27.923Z,3.65
2024-04-18T23:50:55.233Z,3.55
2024-04-18T23:53:24.956Z,3.45
2024-04-18T23:55:52.178Z,3.45
2024-04-18T23:58:24.688Z,3.92
